Time;durP1;ratioP1;P1;durP2;ratioP2;P2;SDS_P1;SDS_P2;PMS_P1;PMS_P2;Temp;Humidity;BMP_temperature;BMP_pressure;BME280_temperature;BME280_humidity;BME280_pressure;Samples;Min_cycle;Max_cycle;Signal;HPM_P1;HPM_P2
2022/07/04 00:01:17;;;;;;;4.87;3.22;;;;;;;22.39;56.33;99794.47;4335123;32;35743;-75
2022/07/04 00:04:03;;;;;;;6.05;3.33;;;;;;;22.48;55.86;99790.53;4350126;32;35052;-76
2022/07/04 00:06:49;;;;;;;7.80;3.20;;;;;;;22.70;55.25;99797.88;4351298;32;33115;-76
2022/07/04 00:09:36;;;;;;;6.55;3.28;;;;;;;21.99;56.63;99796.09;4347213;32;36091;-76
2022/07/04 00:12:22;;;;;;;5.22;3.28;;;;;;;21.65;58.30;99805.72;4346588;32;35434;-76
2022/07/04 00:15:10;;;;;;;5.68;3.05;;;;;;;22.02;57.06;99789.75;4355008;32;34102;-76
2022/07/04 00:17:57;;;;;;;6.12;3.30;;;;;;;21.65;58.63;99800.12;4346126;32;34662;-76
2022/07/04 00:20:43;;;;;;;6.97;3.05;;;;;;;21.50;59.14;99797.19;4351688;32;35672;-75
2022/07/04 00:23:30;;;;;;;8.43;3.50;;;;;;;20.85;61.81;99800.31;4335755;32;34662;-75
2022/07/04 00:26:16;;;;;;;8.20;3.55;;;;;;;21.01;61.54;99800.94;4349193;32;35264;-75
2022/07/04 00:29:02;;;;;;;6.03;3.40;;;;;;;21.53;59.97;99796.44;4345717;32;34599;-75
2022/07/04 00:31:49;;;;;;;5.47;3.22;;;;;;;21.36;62.87;99805.34;4351753;32;36082;-75
2022/07/04 00:34:35;;;;;;;6.75;3.60;;;;;;;21.72;59.85;99800.22;4345269;32;34620;-75
2022/07/04 00:37:22;;;;;;;6.45;3.53;;;;;;;21.97;58.83;99792.91;4343506;32;35180;-75
2022/07/04 00:40:09;;;;;;;7.12;3.40;;;;;;;20.61;63.28;99799.59;4356621;32;35560;-75
2022/07/04 00:43:01;;;;;;;5.20;3.22;;;;;;;20.37;64.44;99797.19;4346360;32;35976;-75
2022/07/04 00:45:47;;;;;;;5.05;3.25;;;;;;;20.35;63.99;99794.78;4344849;32;35477;-75
2022/07/04 00:48:33;;;;;;;5.47;3.17;;;;;;;20.74;62.66;99797.38;4348795;32;34910;-75
2022/07/04 00:51:20;;;;;;;5.95;2.80;;;;;;;20.85;62.03;99800.31;4345937;32;34682;-75
2022/07/04 00:54:08;;;;;;;4.72;3.30;;;;;;;20.56;63.01;99794.34;4340454;32;35950;-76
2022/07/04 00:56:55;;;;;;;5.70;3.40;;;;;;;20.97;61.93;99796.50;4357403;32;35258;-76
2022/07/04 00:59:42;;;;;;;6.45;3.08;;;;;;;21.03;61.34;99793.03;4345803;32;35356;-76
2022/07/04 01:02:28;;;;;;;6.18;3.20;;;;;;;21.36;59.53;99796.19;4336868;32;34729;-76
2022/07/04 01:05:15;;;;;;;6.32;3.50;;;;;;;20.08;64.90;99793.13;4358919;32;34792;-76
2022/07/04 01:08:01;;;;;;;5.25;3.28;;;;;;;20.61;62.32;99798.78;4340202;32;34667;-76
2022/07/04 01:10:47;;;;;;;5.50;3.10;;;;;;;20.81;60.89;99793.91;4344268;32;34708;-76
2022/07/04 01:13:33;;;;;;;5.00;3.20;;;;;;;19.94;63.45;99793.69;4343871;32;34615;-75
2022/07/04 01:16:20;;;;;;;5.57;3.17;;;;;;;20.90;61.39;99797.22;4356833;32;34734;-76
2022/07/04 01:19:06;;;;;;;5.72;3.22;;;;;;;21.37;59.25;99800.63;4345658;32;35472;-76
2022/07/04 01:21:53;;;;;;;6.78;3.40;;;;;;;21.59;58.30;99790.53;4354533;32;34854;-76
2022/07/04 01:24:38;;;;;;;5.85;3.42;;;;;;;20.97;60.03;99800.06;4355572;32;34527;-75
2022/07/04 01:27:25;;;;;;;5.50;3.37;;;;;;;20.88;60.85;99803.16;4349644;32;36036;-76
2022/07/04 01:30:11;;;;;;;6.60;3.10;;;;;;;20.48;61.95;99800.94;4333080;32;34267;-76
2022/07/04 01:32:57;;;;;;;5.72;3.25;;;;;;;20.94;59.88;99789.69;4343276;32;35043;-75
2022/07/04 01:35:44;;;;;;;6.12;3.35;;;;;;;21.19;58.76;99803.16;4343517;32;34401;-75
2022/07/04 01:38:31;;;;;;;5.05;2.90;;;;;;;21.28;58.50;99792.53;4335803;32;35028;-76
2022/07/04 01:41:17;;;;;;;5.12;3.03;;;;;;;21.54;57.11;99795.25;4337253;32;35428;-76
2022/07/04 01:44:03;;;;;;;10.52;3.67;;;;;;;21.68;56.75;99797.38;4358125;32;34825;-76
2022/07/04 01:46:50;;;;;;;5.78;3.17;;;;;;;21.82;55.70;99791.16;4358391;32;34716;-76
2022/07/04 01:49:36;;;;;;;4.78;3.35;;;;;;;22.05;54.88;99788.19;4344345;32;35990;-76
2022/07/04 01:52:23;;;;;;;7.25;3.50;;;;;;;21.93;55.51;99794.84;4345868;32;35736;-75
2022/07/04 01:55:10;;;;;;;5.45;3.25;;;;;;;21.88;55.33;99802.75;4355935;32;33900;-76
2022/07/04 01:57:57;;;;;;;7.12;3.40;;;;;;;21.90;56.27;99806.78;4346560;32;34571;-75
2022/07/04 02:03:48;;;;;;;5.62;2.85;;;;;;;21.67;57.02;99806.16;4346342;32;34605;-75
2022/07/04 02:06:35;;;;;;;5.53;3.10;;;;;;;21.54;56.97;99802.81;4357192;32;33243;-75
2022/07/04 02:09:21;;;;;;;4.78;2.90;;;;;;;21.53;57.03;99812.34;4344788;32;34170;-75
2022/07/04 02:15:26;;;;;;;8.07;3.50;;;;;;;20.97;58.78;99811.22;4337639;32;35442;-75
2022/07/04 02:18:13;;;;;;;5.65;3.30;;;;;;;21.06;58.67;99808.16;4343913;32;35020;-75
2022/07/04 02:20:59;;;;;;;6.12;3.37;;;;;;;21.03;58.87;99815.31;4343742;32;34675;-75
2022/07/04 02:23:45;;;;;;;6.25;3.40;;;;;;;20.88;59.40;99805.13;4345116;32;35051;-75
2022/07/04 02:26:31;;;;;;;5.53;3.28;;;;;;;20.74;59.67;99807.72;4347886;32;34571;-75
2022/07/04 02:29:18;;;;;;;5.03;3.45;;;;;;;20.41;60.70;99803.63;4343177;32;34232;-75
2022/07/04 02:32:05;;;;;;;5.93;3.28;;;;;;;20.33;61.32;99799.12;4344064;32;35642;-75
2022/07/04 02:34:52;;;;;;;5.82;3.17;;;;;;;20.94;59.86;99798.06;4343034;32;34732;-75
2022/07/04 02:37:39;;;;;;;7.43;3.60;;;;;;;21.04;58.98;99808.53;4349798;32;34839;-75
2022/07/04 02:40:25;;;;;;;5.10;3.17;;;;;;;20.93;59.02;99810.37;4346862;32;35025;-75
2022/07/04 02:43:11;;;;;;;6.70;3.40;;;;;;;20.84;59.29;99809.84;4341028;32;35170;-75
2022/07/04 02:45:58;;;;;;;7.18;3.28;;;;;;;21.03;58.36;99814.47;4357837;32;35055;-75
2022/07/04 02:48:44;;;;;;;5.22;3.30;;;;;;;21.26;57.95;99815.22;4345188;32;35266;-75
2022/07/04 02:51:31;;;;;;;4.57;3.05;;;;;;;21.32;57.22;99810.91;4349102;32;35348;-75
2022/07/04 02:54:17;;;;;;;6.57;3.55;;;;;;;21.08;58.15;99820.53;4351322;32;34518;-75
2022/07/04 02:57:03;;;;;;;4.75;3.00;;;;;;;20.74;58.11;99818.84;4354849;32;34866;-75
2022/07/04 02:59:50;;;;;;;5.57;3.53;;;;;;;20.79;58.36;99824.09;4346952;32;34481;-75
2022/07/04 03:02:36;;;;;;;4.85;3.10;;;;;;;20.77;58.76;99830.03;4344837;32;35092;-75
2022/07/04 03:05:22;;;;;;;4.95;3.40;;;;;;;21.09;57.60;99824.94;4345963;32;34565;-75
2022/07/04 03:08:09;;;;;;;5.40;3.30;;;;;;;21.24;56.90;99822.34;4350872;32;34852;-75
2022/07/04 03:10:55;;;;;;;4.40;3.00;;;;;;;21.07;57.12;99827.28;4356604;32;34818;-75
2022/07/04 03:13:41;;;;;;;5.80;3.33;;;;;;;21.01;57.58;99817.66;4336909;32;34145;-75
2022/07/04 03:16:28;;;;;;;5.45;3.03;;;;;;;21.23;56.93;99818.75;4339142;32;32596;-75
2022/07/04 03:19:15;;;;;;;5.82;3.00;;;;;;;21.82;55.21;99816.25;4336985;32;34580;-75
2022/07/04 03:22:01;;;;;;;6.28;3.35;;;;;;;21.83;55.29;99826.25;4335789;32;34599;-75
2022/07/04 03:24:47;;;;;;;4.82;3.50;;;;;;;22.02;54.49;99820.44;4343667;32;34162;-75
2022/07/04 03:27:34;;;;;;;4.60;3.00;;;;;;;22.01;54.69;99826.41;4343935;32;35129;-75
2022/07/04 03:30:21;;;;;;;6.60;3.30;;;;;;;21.97;55.35;99826.37;4346968;32;35740;-75
2022/07/04 03:33:07;;;;;;;6.70;3.65;;;;;;;22.04;55.00;99827.63;4334373;32;34634;-75
2022/07/04 03:35:53;;;;;;;6.47;3.20;;;;;;;22.00;55.17;99822.03;4343389;32;34977;-75
2022/07/04 03:38:39;;;;;;;5.25;3.22;;;;;;;21.96;55.39;99810.03;4348397;32;34593;-75
2022/07/04 03:41:26;;;;;;;5.28;3.33;;;;;;;21.85;56.11;99820.28;4342207;32;36903;-75
2022/07/04 03:44:12;;;;;;;6.43;3.35;;;;;;;21.86;56.43;99817.09;4344029;32;35986;-75
2022/07/04 03:46:59;;;;;;;8.10;4.10;;;;;;;21.91;56.22;99824.31;4348924;32;34406;-75
2022/07/04 03:49:45;;;;;;;6.68;3.60;;;;;;;21.92;56.38;99815.56;4351520;32;34607;-74
2022/07/04 03:52:31;;;;;;;8.52;3.10;;;;;;;21.98;55.90;99810.44;4350927;32;34986;-74
2022/07/04 03:55:18;;;;;;;5.32;3.03;;;;;;;21.98;56.12;99805.66;4339054;32;34655;-75
2022/07/04 03:58:05;;;;;;;7.25;3.33;;;;;;;21.96;56.36;99815.59;4354907;32;33684;-75
2022/07/04 04:00:51;;;;;;;7.07;3.17;;;;;;;22.04;56.36;99814.47;4346441;32;35600;-75
2022/07/04 04:06:42;;;;;;;5.78;3.53;;;;;;;22.10;56.23;99807.38;4353167;32;33957;-74
2022/07/04 04:09:28;;;;;;;8.25;3.83;;;;;;;22.15;56.32;99817.37;4356344;32;34173;-75
2022/07/04 04:12:15;;;;;;;6.78;3.78;;;;;;;22.25;55.68;99822.28;4357944;32;35609;-75
2022/07/04 04:15:01;;;;;;;9.10;3.60;;;;;;;22.22;55.99;99821.03;4356961;32;34984;-75
2022/07/04 04:17:48;;;;;;;8.10;3.45;;;;;;;22.16;56.27;99822.56;4342469;32;34359;-75
2022/07/04 04:20:34;;;;;;;7.18;3.17;;;;;;;22.28;55.75;99817.91;4356632;32;34602;-74
2022/07/04 04:23:21;;;;;;;6.07;3.67;;;;;;;22.64;53.94;99822.56;4344501;32;34683;-73
2022/07/04 04:26:07;;;;;;;8.48;3.95;;;;;;;22.92;53.64;99823.16;4356495;32;36188;-73
2022/07/04 04:28:53;;;;;;;7.00;3.47;;;;;;;22.87;53.33;99819.53;4355348;32;34632;-73
2022/07/04 04:31:40;;;;;;;9.70;3.70;;;;;;;22.69;53.89;99827.00;4357098;32;35167;-73
2022/07/04 04:34:26;;;;;;;6.35;4.00;;;;;;;22.30;55.48;99819.13;4357823;32;34608;-73
2022/07/04 04:37:12;;;;;;;6.80;3.80;;;;;;;22.54;54.95;99822.50;4346201;32;34800;-73
2022/07/04 04:39:59;;;;;;;8.85;4.00;;;;;;;22.44;55.50;99818.44;4356267;32;35835;-74
2022/07/04 04:42:45;;;;;;;6.10;3.60;;;;;;;23.14;53.73;99810.94;4360900;32;35052;-73
2022/07/04 04:45:31;;;;;;;6.40;3.20;;;;;;;23.42;53.01;99820.63;4361332;32;34614;-73
2022/07/04 04:48:18;;;;;;;6.90;3.67;;;;;;;23.67;52.81;99815.12;4354886;32;34654;-73
2022/07/04 04:51:04;;;;;;;7.37;3.50;;;;;;;23.44;53.05;99809.87;4362032;32;36247;-73
2022/07/04 04:53:54;;;;;;;6.33;3.60;;;;;;;23.71;51.87;99811.19;4361942;32;34636;-74
2022/07/04 04:56:40;;;;;;;7.32;3.70;;;;;;;23.90;51.69;99806.41;4361345;32;34692;-74
2022/07/04 04:59:29;;;;;;;8.73;3.80;;;;;;;23.72;51.36;99806.38;4348448;32;35706;-74
2022/07/04 05:02:15;;;;;;;6.15;3.75;;;;;;;23.99;51.82;99804.00;4362047;32;34705;-74
2022/07/04 05:05:02;;;;;;;6.45;3.70;;;;;;;24.12;50.58;99812.84;4361536;32;33918;-74
2022/07/04 05:07:48;;;;;;;5.20;3.35;;;;;;;24.31;51.07;99806.84;4362295;32;35465;-74
2022/07/04 05:10:34;;;;;;;5.72;3.70;;;;;;;24.20;50.42;99806.84;4362311;32;34485;-73
2022/07/04 05:13:20;;;;;;;12.20;5.05;;;;;;;23.50;53.08;99816.66;4350007;32;34609;-74
2022/07/04 05:16:06;;;;;;;5.45;3.45;;;;;;;23.18;53.28;99808.97;4360102;32;34188;-74
2022/07/04 05:18:53;;;;;;;6.90;3.47;;;;;;;23.74;52.13;99824.38;4361579;32;35368;-74
2022/07/04 05:21:39;;;;;;;6.18;3.80;;;;;;;24.15;51.00;99807.25;4362138;32;34665;-74
2022/07/04 05:24:26;;;;;;;8.52;3.83;;;;;;;23.43;53.62;99817.44;4340349;32;35502;-74
2022/07/04 05:27:12;;;;;;;7.68;3.78;;;;;;;23.59;52.39;99819.88;4361137;32;34132;-74
2022/07/04 05:29:59;;;;;;;6.50;3.50;;;;;;;23.64;52.36;99819.50;4338554;32;34680;-74
2022/07/04 05:32:45;;;;;;;5.80;3.70;;;;;;;23.54;52.38;99817.50;4359476;32;34387;-74
2022/07/04 05:35:31;;;;;;;8.65;3.95;;;;;;;23.94;51.31;99818.44;4361651;32;35887;-74
2022/07/04 05:38:18;;;;;;;12.70;4.30;;;;;;;24.74;50.11;99820.06;4361889;32;34446;-74
2022/07/04 05:41:04;;;;;;;7.32;3.92;;;;;;;24.34;51.60;99831.25;4350384;32;34335;-74
2022/07/04 05:43:50;;;;;;;7.78;4.30;;;;;;;24.72;51.39;99822.44;4358218;32;91225;-73
2022/07/04 05:46:42;;;;;;;5.62;4.15;;;;;;;24.55;50.75;99824.88;4360881;32;34590;-74
2022/07/04 05:49:29;;;;;;;6.72;4.12;;;;;;;24.88;48.39;99825.63;4358140;32;33872;-74
2022/07/04 05:52:15;;;;;;;5.72;4.15;;;;;;;24.74;48.32;99826.44;4357559;32;34326;-74
2022/07/04 05:55:03;;;;;;;5.97;4.30;;;;;;;24.91;48.35;99831.22;4345563;32;33852;-74
2022/07/04 05:57:49;;;;;;;9.45;4.50;;;;;;;25.42;47.19;99826.28;4358015;32;33572;-74
2022/07/04 06:00:35;;;;;;;8.00;4.45;;;;;;;25.59;46.90;99830.22;4358972;32;34172;-73
2022/07/04 06:03:21;;;;;;;6.05;4.35;;;;;;;25.59;45.80;99830.22;4356885;32;35666;-74
2022/07/04 06:06:09;;;;;;;8.45;4.50;;;;;;;25.73;45.39;99823.72;4358693;32;34536;-74
2022/07/04 06:08:56;;;;;;;8.20;4.53;;;;;;;26.21;44.16;99831.44;4358582;32;35533;-74
2022/07/04 06:11:42;;;;;;;11.48;4.68;;;;;;;26.42;43.66;99828.47;4358830;32;35052;-74
2022/07/04 06:14:29;;;;;;;6.87;4.82;;;;;;;26.15;43.96;99821.88;4328485;32;34713;-74
2022/07/04 06:17:15;;;;;;;9.55;4.78;;;;;;;26.53;42.47;99831.22;4358786;32;35047;-74
2022/07/04 06:20:03;;;;;;;6.18;4.72;;;;;;;26.39;41.67;99825.72;4340557;32;34619;-75
2022/07/04 06:22:49;;;;;;;5.85;4.68;;;;;;;26.40;43.07;99824.47;4347391;32;35154;-74
2022/07/04 06:25:35;;;;;;;6.50;4.60;;;;;;;26.94;41.55;99821.19;4354168;32;34656;-74
2022/07/04 06:28:21;;;;;;;9.60;4.80;;;;;;;27.24;41.63;99826.13;4344824;32;34680;-74
2022/07/04 06:31:28;;;;;;;8.45;4.87;;;;;;;26.87;41.51;99814.44;4354493;32;34880;-74
2022/07/04 06:37:19;;;;;;;6.40;4.65;;;;;;;27.24;40.96;99817.69;4357986;32;35075;-74
2022/07/04 06:40:07;;;;;;;6.40;4.37;;;;;;;27.02;41.71;99828.34;4355345;32;35020;-74
2022/07/04 06:42:53;;;;;;;10.25;4.53;;;;;;;27.20;42.34;99831.75;4357031;32;35606;-74
2022/07/04 06:45:39;;;;;;;6.97;4.35;;;;;;;27.36;41.50;99819.94;4340399;32;33654;-75
2022/07/04 06:48:26;;;;;;;12.30;4.87;;;;;;;27.50;40.04;99824.59;4347045;32;35505;-74
2022/07/04 06:51:13;;;;;;;8.50;4.45;;;;;;;27.68;40.06;99813.88;4357483;32;35621;-73
2022/07/04 06:53:59;;;;;;;11.77;4.82;;;;;;;27.63;40.45;99819.97;4355030;32;34138;-74
2022/07/04 06:56:46;;;;;;;7.32;4.70;;;;;;;27.75;39.48;99822.22;4356230;32;33870;-73
2022/07/04 06:59:32;;;;;;;7.00;4.20;;;;;;;27.55;39.37;99818.47;4357964;32;35400;-73
2022/07/04 07:02:18;;;;;;;7.60;4.75;;;;;;;27.94;39.09;99820.75;4356104;32;35059;-74
2022/07/04 07:05:05;;;;;;;6.85;4.50;;;;;;;27.92;38.59;99820.41;4343771;32;34319;-74
2022/07/04 07:07:53;;;;;;;6.40;4.20;;;;;;;28.16;37.63;99826.88;4354599;32;34122;-75
2022/07/04 07:10:39;;;;;;;7.32;4.53;;;;;;;28.30;37.47;99825.06;4346068;32;35036;-75
2022/07/04 07:13:26;;;;;;;7.95;4.50;;;;;;;28.49;37.72;99827.19;4357328;32;34991;-74
2022/07/04 07:16:13;;;;;;;8.20;4.37;;;;;;;28.27;36.85;99826.69;4355273;32;34555;-75
2022/07/04 07:18:59;;;;;;;5.60;4.47;;;;;;;28.56;36.76;99827.03;4346111;32;34687;-75
2022/07/04 07:21:45;;;;;;;7.30;4.15;;;;;;;28.45;36.35;99826.44;4357402;32;34774;-75
2022/07/04 07:24:32;;;;;;;5.00;3.70;;;;;;;28.63;36.33;99821.28;4357242;32;35078;-76
2022/07/04 07:27:18;;;;;;;7.53;3.95;;;;;;;28.38;36.48;99820.91;4357659;32;33751;-75
2022/07/04 07:30:05;;;;;;;5.82;3.80;;;;;;;28.60;36.33;99822.12;4356871;32;33885;-75
2022/07/04 07:32:52;;;;;;;5.07;3.72;;;;;;;28.97;34.81;99823.06;4335600;32;34308;-76
2022/07/04 07:35:38;;;;;;;5.40;3.58;;;;;;;29.07;35.39;99826.94;4344764;32;35890;-74
2022/07/04 07:38:24;;;;;;;6.60;3.65;;;;;;;28.81;34.09;99823.00;4357647;32;35458;-74
2022/07/04 07:41:11;;;;;;;5.85;3.30;;;;;;;28.86;34.21;99823.28;4342409;32;33919;-75
2022/07/04 07:43:58;;;;;;;7.25;2.90;;;;;;;29.43;33.88;99821.38;4357584;32;35558;-74
2022/07/04 07:46:44;;;;;;;9.05;2.87;;;;;;;29.63;33.34;99827.03;4357195;32;34610;-74
2022/07/04 07:49:30;;;;;;;5.00;3.10;;;;;;;29.29;33.20;99822.47;4356748;32;34687;-75
2022/07/04 07:52:17;;;;;;;5.65;3.00;;;;;;;29.70;32.42;99826.88;4358087;32;34156;-74
2022/07/04 07:55:05;;;;;;;4.97;2.67;;;;;;;29.57;32.61;99821.06;4342137;32;34527;-75
2022/07/04 07:57:52;;;;;;;5.28;2.60;;;;;;;30.08;31.74;99819.94;4335110;32;35917;-74
2022/07/04 08:00:39;;;;;;;2.70;2.03;;;;;;;29.93;32.15;99828.75;4355091;32;34227;-74
2022/07/04 08:06:47;;;;;;;3.47;2.42;;;;;;;30.12;30.09;99804.50;4349177;32;35630;-75
2022/07/04 08:09:53;;;;;;;6.12;2.50;;;;;;;30.11;29.79;99802.13;4351741;32;34638;-74
2022/07/04 08:12:39;;;;;;;7.40;2.72;;;;;;;30.45;30.81;99793.22;4355293;32;34154;-75
2022/07/04 08:15:26;;;;;;;2.70;2.40;;;;;;;30.56;30.21;99798.59;4339352;32;34198;-74
2022/07/04 08:18:13;;;;;;;4.70;2.60;;;;;;;30.71;29.93;99791.34;4343598;32;35128;-74
2022/07/04 08:21:09;;;;;;;3.40;2.15;;;;;;;30.81;29.12;99804.41;4347120;32;35891;-76
2022/07/04 08:23:59;;;;;;;2.17;1.80;;;;;;;30.82;28.49;99791.84;4335535;32;34867;-74
2022/07/04 08:27:05;;;;;;;4.80;2.20;;;;;;;30.74;27.63;99793.28;4344028;32;34039;-74
2022/07/04 08:29:51;;;;;;;3.67;2.53;;;;;;;30.86;28.27;99806.69;4346182;32;33678;-73
2022/07/04 08:32:37;;;;;;;3.22;1.83;;;;;;;30.79;28.45;99795.56;4350357;32;34996;-75
2022/07/04 08:35:24;;;;;;;5.80;2.28;;;;;;;31.13;28.03;99795.00;4343321;32;34647;-75
2022/07/04 08:38:10;;;;;;;5.37;2.17;;;;;;;31.22;27.83;99788.69;4350076;32;34110;-74
2022/07/04 08:40:58;;;;;;;3.33;2.05;;;;;;;31.11;27.15;99799.56;4347723;32;35643;-74
2022/07/04 08:43:47;;;;;;;2.60;1.70;;;;;;;31.32;26.98;99793.25;4343635;32;34956;-74
2022/07/04 08:46:35;;;;;;;4.03;2.05;;;;;;;31.25;27.81;99793.50;4354191;32;35484;-74
2022/07/04 08:49:23;;;;;;;3.83;2.05;;;;;;;30.91;27.19;99797.69;4342289;32;34347;-75
2022/07/04 08:52:12;;;;;;;1.90;1.70;;;;;;;30.84;27.01;99812.00;4355610;32;34528;-74
2022/07/04 09:01:16;;;;;;;2.70;1.98;;;;;;;31.22;26.89;99805.69;4347488;32;33854;-75
2022/07/04 09:04:04;;;;;;;4.55;2.30;;;;;;;31.38;27.47;99793.53;4344229;32;34702;-74
2022/07/04 09:06:51;;;;;;;2.97;1.80;;;;;;;31.59;28.55;99794.91;4341681;32;35922;-73
2022/07/04 09:09:37;;;;;;;3.45;2.33;;;;;;;32.30;27.40;99797.53;4342932;32;34690;-72
2022/07/04 09:12:24;;;;;;;3.03;2.03;;;;;;;32.20;27.49;99799.47;4340349;32;34956;-76
2022/07/04 09:15:10;;;;;;;4.68;2.33;;;;;;;31.45;26.87;99801.81;4352513;32;34608;-74
2022/07/04 09:17:57;;;;;;;2.40;2.10;;;;;;;31.57;26.84;99798.22;4355534;32;33930;-73
2022/07/04 09:20:50;;;;;;;3.42;2.47;;;;;;;31.25;27.43;99796.31;4355308;32;34410;-73
2022/07/04 09:23:40;;;;;;;2.47;2.00;;;;;;;31.65;27.16;99795.97;4355919;32;34380;-73
2022/07/04 09:26:26;;;;;;;2.97;2.40;;;;;;;31.84;26.40;99787.69;4357398;32;35021;-73
2022/07/04 09:29:13;;;;;;;6.40;2.50;;;;;;;31.91;27.23;99793.16;4357212;32;34698;-72
2022/07/04 09:31:59;;;;;;;2.90;2.33;;;;;;;31.97;27.42;99792.12;4355604;32;35103;-72
2022/07/04 09:34:55;;;;;;;4.68;2.33;;;;;;;31.70;26.07;99789.72;4345640;32;33889;-72
2022/07/04 09:37:46;;;;;;;3.92;2.35;;;;;;;32.52;26.79;99785.50;4345115;32;35541;-73
2022/07/04 09:41:24;;;;;;;6.25;2.25;;;;;;;32.53;26.01;99790.69;4346496;32;35687;-74
2022/07/04 09:44:06;;;;;;;3.67;2.20;;;;;;;32.04;25.72;99780.56;4358559;32;35058;-72
2022/07/04 09:46:52;;;;;;;4.75;2.30;;;;;;;31.67;26.50;99787.78;4345266;32;33729;-72
2022/07/04 09:49:39;;;;;;;8.57;2.60;;;;;;;32.24;26.11;99785.97;4337933;32;34626;-73
2022/07/04 09:52:27;;;;;;;5.05;2.22;;;;;;;32.40;25.72;99782.19;4358760;32;34993;-73
2022/07/04 09:55:21;;;;;;;6.82;2.90;;;;;;;32.64;25.38;99773.31;4347481;32;34473;-73
2022/07/04 09:58:11;;;;;;;4.62;2.78;;;;;;;32.64;26.15;99774.09;4354347;32;34182;-73
2022/07/04 10:00:59;;;;;;;4.73;2.70;;;;;;;32.54;26.22;99768.81;4354510;32;34598;-73
2022/07/04 10:03:51;;;;;;;5.55;2.65;;;;;;;33.10;25.85;99768.81;4335803;32;34937;-74
2022/07/04 10:06:38;;;;;;;3.42;2.58;;;;;;;32.64;26.48;99767.63;4347142;32;35478;-73
2022/07/04 10:09:28;;;;;;;4.03;2.95;;;;;;;31.86;26.38;99779.53;4353571;32;34110;-73
2022/07/04 10:12:27;;;;;;;3.62;2.55;;;;;;;32.55;26.11;99759.84;4344131;32;34734;-73
2022/07/04 10:15:14;;;;;;;6.82;2.92;;;;;;;32.04;26.86;99768.44;4337105;32;35019;-71
2022/07/04 10:18:05;;;;;;;3.45;2.28;;;;;;;32.50;26.72;99766.09;4344603;32;34413;-72
2022/07/04 10:20:53;;;;;;;6.87;2.92;;;;;;;33.13;24.16;99748.03;4353327;32;34381;-73
2022/07/04 10:23:40;;;;;;;3.67;2.60;;;;;;;33.36;25.66;99752.41;4334219;32;34136;-73
2022/07/04 10:26:29;;;;;;;4.90;2.80;;;;;;;33.68;25.33;99743.91;4345445;32;35981;-73
2022/07/04 10:29:17;;;;;;;4.45;2.60;;;;;;;33.47;24.99;99737.00;4349135;32;35398;-72
2022/07/04 10:32:06;;;;;;;3.08;2.47;;;;;;;33.46;24.58;99738.25;4350554;32;33909;-72
2022/07/04 10:34:52;;;;;;;3.80;2.20;;;;;;;33.53;23.77;99743.69;4346653;32;35301;-72
2022/07/04 10:37:58;;;;;;;2.85;2.33;;;;;;;33.62;23.55;99726.69;4344595;32;35007;-73
2022/07/04 10:40:53;;;;;;;2.53;1.90;;;;;;;34.43;23.13;99718.03;4344026;32;34099;-73
2022/07/04 10:44:00;;;;;;;3.65;2.08;;;;;;;34.09;22.28;99727.63;4354989;32;33246;-73
2022/07/04 10:46:49;;;;;;;4.62;2.17;;;;;;;33.69;23.00;99722.75;4349317;32;34699;-73
2022/07/04 10:49:36;;;;;;;2.53;1.80;;;;;;;33.52;23.23;99719.37;4339651;32;34955;-73
2022/07/04 10:52:22;;;;;;;4.82;1.80;;;;;;;33.73;23.09;99720.56;4349974;32;33440;-73
2022/07/04 10:55:14;;;;;;;2.62;1.95;;;;;;;33.87;22.33;99728.50;4345631;32;33905;-73
2022/07/04 10:58:00;;;;;;;3.20;2.33;;;;;;;34.13;22.17;99728.28;4347270;32;35311;-74
2022/07/04 11:01:12;;;;;;;5.97;2.40;;;;;;;33.15;22.50;99710.63;4354732;32;35106;-76
2022/07/04 11:03:58;;;;;;;2.83;1.90;;;;;;;33.81;22.40;99707.62;4345411;32;35476;-75
2022/07/04 11:06:45;;;;;;;2.15;1.58;;;;;;;33.77;22.25;99707.00;4355139;32;34188;-74
2022/07/04 11:09:31;;;;;;;2.75;2.20;;;;;;;33.70;22.17;99712.97;4356008;32;34670;-73
2022/07/04 11:12:17;;;;;;;6.10;2.10;;;;;;;33.17;23.26;99696.00;4355712;32;35058;-73
2022/07/04 11:15:04;;;;;;;2.45;2.10;;;;;;;34.03;22.77;99699.78;4357982;32;33938;-73
2022/07/04 11:17:51;;;;;;;2.80;1.92;;;;;;;34.25;22.38;99696.06;4357828;32;35240;-74
2022/07/04 11:20:43;;;;;;;5.57;1.98;;;;;;;34.36;21.71;99689.94;4356483;32;34708;-73
2022/07/04 11:23:29;;;;;;;3.20;2.17;;;;;;;34.45;22.22;99696.37;4355001;32;34470;-73
2022/07/04 11:26:15;;;;;;;2.45;1.80;;;;;;;34.68;22.04;99691.34;4355489;32;34603;-73
2022/07/04 11:29:02;;;;;;;2.58;1.90;;;;;;;34.29;21.99;99695.91;4357600;32;34262;-73
2022/07/04 11:31:50;;;;;;;2.33;1.70;;;;;;;34.37;20.89;99680.91;4357717;32;34629;-72
2022/07/04 11:34:37;;;;;;;3.03;1.62;;;;;;;34.34;20.86;99670.47;4336648;32;34969;-73
2022/07/04 11:37:23;;;;;;;3.75;1.90;;;;;;;34.85;20.57;99664.13;4355330;32;34469;-73
2022/07/04 11:46:26;;;;;;;2.33;1.73;;;;;;;34.35;20.74;99657.81;4356518;32;35030;-74
2022/07/04 11:49:12;;;;;;;2.55;1.73;;;;;;;34.48;21.89;99652.78;4357820;32;34345;-73
2022/07/04 11:51:59;;;;;;;2.03;1.75;;;;;;;34.12;19.91;99647.88;4339246;32;33722;-72
2022/07/04 11:54:46;;;;;;;3.25;1.60;;;;;;;34.69;18.66;99638.84;4354834;32;35491;-73
2022/07/04 11:57:44;;;;;;;1.65;1.42;;;;;;;34.36;19.31;99638.72;4345726;32;34408;-74
2022/07/04 12:00:31;;;;;;;7.32;2.00;;;;;;;34.97;19.62;99647.34;4338517;32;34548;-73
2022/07/04 12:03:19;;;;;;;2.85;2.20;;;;;;;34.65;19.64;99647.56;4347587;32;34250;-75
2022/07/04 12:06:05;;;;;;;3.17;1.80;;;;;;;34.49;20.24;99650.72;4351511;32;34639;-73
2022/07/04 12:08:52;;;;;;;3.75;2.12;;;;;;;35.13;19.57;99638.47;4341675;32;34641;-74
2022/07/04 12:11:58;;;;;;;3.15;1.73;;;;;;;34.62;20.31;99636.34;4334143;32;34819;-75
2022/07/04 12:15:02;;;;;;;2.70;2.00;;;;;;;34.50;20.41;99643.78;4340961;32;34069;-74
2022/07/04 12:17:54;;;;;;;2.12;1.92;;;;;;;35.19;19.29;99625.16;4336159;32;35402;-73
2022/07/04 12:20:40;;;;;;;2.08;1.87;;;;;;;34.78;19.78;99636.03;4347148;32;35137;-74
2022/07/04 12:23:28;;;;;;;3.25;2.15;;;;;;;35.10;19.69;99645.13;4342248;32;35431;-75
2022/07/04 12:26:14;;;;;;;2.60;2.17;;;;;;;34.41;20.61;99643.75;4352107;32;35185;-75
2022/07/04 12:29:01;;;;;;;3.90;2.22;;;;;;;34.43;19.68;99639.19;4338684;32;34691;-73
2022/07/04 12:31:51;;;;;;;2.50;2.15;;;;;;;35.42;19.88;99623.62;4346632;32;35034;-76
2022/07/04 12:34:37;;;;;;;3.65;2.00;;;;;;;34.98;20.17;99626.13;4331507;32;35352;-73
2022/07/04 12:37:23;;;;;;;4.65;2.00;;;;;;;35.19;20.51;99642.22;4345788;32;34129;-74
2022/07/04 12:40:10;;;;;;;4.12;2.10;;;;;;;35.07;20.23;99634.69;4333995;32;34723;-75
2022/07/04 12:42:57;;;;;;;4.65;2.08;;;;;;;35.22;19.68;99641.28;4347978;32;34950;-75
2022/07/04 12:45:47;;;;;;;3.35;1.98;;;;;;;35.39;19.82;99626.66;4346005;32;34266;-76
2022/07/04 12:48:35;;;;;;;2.65;1.75;;;;;;;34.80;19.33;99622.06;4356470;32;34778;-73
2022/07/04 12:51:26;;;;;;;5.78;2.10;;;;;;;34.99;19.00;99627.72;4342285;32;34526;-74
2022/07/04 12:54:13;;;;;;;4.62;1.85;;;;;;;35.66;18.63;99635.06;4339854;32;34586;-74
2022/07/04 12:57:11;;;;;;;2.58;1.90;;;;;;;34.92;19.82;99632.50;4341566;32;34099;-73
2022/07/04 12:59:58;;;;;;;7.15;2.00;;;;;;;34.81;19.90;99637.91;4340033;32;33621;-73
2022/07/04 13:03:04;;;;;;;3.95;2.05;;;;;;;35.54;19.01;99630.34;4341260;32;34099;-74
2022/07/04 13:05:51;;;;;;;5.20;2.03;;;;;;;36.21;18.86;99622.50;4345932;32;35934;-74
2022/07/04 13:08:37;;;;;;;4.37;1.85;;;;;;;36.19;19.59;99625.84;4339771;32;34276;-73
2022/07/04 13:14:28;;;;;;;2.92;1.73;;;;;;;36.61;18.27;99610.56;4352961;32;34612;-73
2022/07/04 13:17:14;;;;;;;5.68;1.45;;;;;;;36.47;16.84;99617.81;4338987;32;34546;-73
2022/07/04 13:20:01;;;;;;;1.23;1.12;;;;;;;36.46;16.99;99609.75;4351400;32;34655;-74
2022/07/04 13:22:48;;;;;;;1.42;1.25;;;;;;;37.23;15.47;99617.34;4344277;32;33754;-74
2022/07/04 13:25:34;;;;;;;3.62;1.60;;;;;;;37.54;15.80;99616.81;4344474;32;34073;-74
2022/07/04 13:28:20;;;;;;;2.80;1.50;;;;;;;35.97;16.61;99619.66;4350472;32;34952;-73
2022/07/04 13:31:07;;;;;;;1.55;1.37;;;;;;;36.58;17.00;99622.19;4347857;32;35917;-74
2022/07/04 13:33:53;;;;;;;4.43;1.60;;;;;;;35.97;16.02;99613.94;4347882;32;33782;-74
2022/07/04 13:36:41;;;;;;;2.22;1.42;;;;;;;35.13;17.43;99632.78;4336347;32;34681;-74
2022/07/04 13:39:27;;;;;;;2.55;1.35;;;;;;;35.64;16.99;99608.34;4350101;32;33901;-74
2022/07/04 13:45:40;;;;;;;2.67;1.67;;;;;;;35.70;17.72;99606.41;4351404;32;33781;-73